createdAt,value
2018-02-16T00:00:45.552Z,24.05
2018-02-16T00:03:12.477Z,22.05
2018-02-16T00:05:40.156Z,26.20
2018-02-16T00:08:07.089Z,25.65
2018-02-16T00:10:34.761Z,23.12
2018-02-16T00:13:01.715Z,24.52
2018-02-16T00:15:28.632Z,20.83
2018-02-16T00:17:56.333Z,21.55
2018-02-16T00:20:23.240Z,20.77
2018-02-16T00:22:50.169Z,19.17
2018-02-16T00:25:17.085Z,18.83
2018-02-16T00:27:44.006Z,20.98
2018-02-16T00:30:10.941Z,21.45
2018-02-16T00:32:37.863Z,22.60
2018-02-16T00:35:05.556Z,19.73
2018-02-16T00:37:32.492Z,15.80
2018-02-16T00:39:59.400Z,17.40
2018-02-16T00:42:27.095Z,17.10
2018-02-16T00:44:54.002Z,16.70
2018-02-16T00:47:21.709Z,15.95
2018-02-16T00:49:48.623Z,14.68
2018-02-16T00:52:16.313Z,14.10
2018-02-16T00:54:43.227Z,11.40
2018-02-16T00:57:10.917Z,12.18
2018-02-16T00:59:37.840Z,8.93
2018-02-16T01:02:05.533Z,9.45
2018-02-16T01:04:32.456Z,7.72
2018-02-16T01:06:59.362Z,8.40
2018-02-16T01:09:26.291Z,8.27
2018-02-16T01:11:53.215Z,7.65
2018-02-16T01:14:20.133Z,7.10
2018-02-16T01:16:47.043Z,6.75
2018-02-16T01:19:13.991Z,5.80
2018-02-16T01:21:40.908Z,4.97
2018-02-16T01:24:07.841Z,5.30
2018-02-16T01:26:34.752Z,7.00
2018-02-16T01:29:01.720Z,5.75
2018-02-16T01:31:29.364Z,4.55
2018-02-16T01:33:56.297Z,5.87
2018-02-16T01:36:23.223Z,7.43
2018-02-16T01:38:50.939Z,5.80
2018-02-16T01:41:17.854Z,5.57
2018-02-16T01:43:44.788Z,5.03
2018-02-16T01:46:12.464Z,6.07
2018-02-16T01:48:39.391Z,6.80
2018-02-16T01:51:07.068Z,5.20
2018-02-16T01:53:33.993Z,5.32
2018-02-16T01:56:01.674Z,7.00
2018-02-16T01:58:28.601Z,5.30
2018-02-16T02:00:56.276Z,5.05
2018-02-16T02:03:23.204Z,4.05
2018-02-16T02:05:50.877Z,5.62
2018-02-16T02:08:17.799Z,5.00
2018-02-16T02:10:44.719Z,3.03
2018-02-16T02:13:11.628Z,5.28
2018-02-16T02:15:38.543Z,6.05
2018-02-16T02:18:06.217Z,4.93
2018-02-16T02:20:33.897Z,5.75
2018-02-16T02:23:00.803Z,5.03
2018-02-16T02:25:27.721Z,5.53
2018-02-16T02:27:54.641Z,4.80
2018-02-16T02:30:21.569Z,6.22
2018-02-16T02:32:48.486Z,5.05
2018-02-16T02:35:16.189Z,5.40
2018-02-16T02:37:43.094Z,4.97
2018-02-16T02:40:10.017Z,5.43
2018-02-16T02:42:36.933Z,5.68
2018-02-16T02:45:03.870Z,4.90
2018-02-16T02:47:30.780Z,4.62
2018-02-16T02:49:58.472Z,3.92
2018-02-16T02:52:25.380Z,4.72
2018-02-16T02:54:53.060Z,5.22
2018-02-16T02:57:19.967Z,6.15
2018-02-16T02:59:46.881Z,6.00
2018-02-16T03:02:13.787Z,6.65
2018-02-16T03:04:40.715Z,6.50
2018-02-16T03:07:08.385Z,4.80
2018-02-16T03:09:36.073Z,5.95
2018-02-16T03:12:02.984Z,5.30
2018-02-16T03:14:30.689Z,6.47
2018-02-16T03:16:57.591Z,7.43
2018-02-16T03:19:25.281Z,5.15
2018-02-16T03:21:52.189Z,6.85
2018-02-16T03:24:19.876Z,9.18
2018-02-16T03:26:46.799Z,5.90
2018-02-16T03:29:13.726Z,6.12
2018-02-16T03:31:40.651Z,6.75
2018-02-16T03:34:07.556Z,5.53
2018-02-16T03:36:34.492Z,5.90
2018-02-16T03:39:01.400Z,7.22
2018-02-16T03:41:28.316Z,6.75
2018-02-16T03:43:55.245Z,7.80
2018-02-16T03:46:22.181Z,8.02
2018-02-16T03:48:49.093Z,6.93
2018-02-16T03:51:16.795Z,7.32
2018-02-16T03:53:43.704Z,7.50
2018-02-16T03:56:11.396Z,6.97
2018-02-16T03:58:38.311Z,7.40
2018-02-16T04:01:05.997Z,7.12
2018-02-16T04:03:32.918Z,7.65
2018-02-16T04:06:00.612Z,9.02
2018-02-16T04:08:27.528Z,8.52
2018-02-16T04:10:55.225Z,8.15
2018-02-16T04:13:22.127Z,9.40
2018-02-16T04:15:49.821Z,9.85
2018-02-16T04:18:16.727Z,9.10
2018-02-16T04:20:43.645Z,8.88
2018-02-16T04:23:10.555Z,9.23
2018-02-16T04:25:37.474Z,9.05
2018-02-16T04:28:05.144Z,8.38
2018-02-16T04:30:32.072Z,11.35
2018-02-16T04:32:59.739Z,10.25
2018-02-16T04:35:27.421Z,9.00
2018-02-16T04:37:54.331Z,8.90
2018-02-16T04:40:21.257Z,9.63
2018-02-16T04:42:48.168Z,10.60
2018-02-16T04:45:15.101Z,9.25
2018-02-16T04:47:42.004Z,9.27
2018-02-16T04:50:08.917Z,8.32
2018-02-16T04:52:35.829Z,9.15
2018-02-16T04:55:02.761Z,9.60
2018-02-16T04:57:30.433Z,9.30
2018-02-16T04:59:57.381Z,12.20
2018-02-16T05:02:24.292Z,11.18
2018-02-16T05:04:51.213Z,9.40
2018-02-16T05:07:18.136Z,10.23
2018-02-16T05:09:45.065Z,10.10
2018-02-16T05:12:11.999Z,9.20
2018-02-16T05:14:38.955Z,9.60
2018-02-16T05:17:05.878Z,15.15
2018-02-16T05:19:32.784Z,16.20
2018-02-16T05:21:59.712Z,10.23
2018-02-16T05:24:26.620Z,9.60
2018-02-16T05:26:53.552Z,9.52
2018-02-16T05:29:21.229Z,10.43
2018-02-16T05:31:48.146Z,9.57
2018-02-16T05:34:15.846Z,9.15
2018-02-16T05:36:42.775Z,9.50
2018-02-16T05:39:09.696Z,10.68
2018-02-16T05:41:37.379Z,10.68
2018-02-16T05:44:04.283Z,9.43
2018-02-16T05:46:31.202Z,10.57
2018-02-16T05:48:58.108Z,9.52
2018-02-16T05:51:25.032Z,11.63
2018-02-16T05:53:52.714Z,9.65
2018-02-16T05:56:19.646Z,9.90
2018-02-16T05:58:47.330Z,8.43
2018-02-16T06:01:14.240Z,9.52
2018-02-16T06:03:41.168Z,9.35
2018-02-16T06:06:08.839Z,8.48
2018-02-16T06:08:35.752Z,7.07
2018-02-16T06:11:02.656Z,9.35
2018-02-16T06:13:29.579Z,8.10
2018-02-16T06:15:56.493Z,9.55
2018-02-16T06:18:23.415Z,8.82
2018-02-16T06:20:50.335Z,9.55
2018-02-16T06:23:17.244Z,8.73
2018-02-16T06:25:44.170Z,9.55
2018-02-16T06:28:11.080Z,8.48
2018-02-16T06:30:37.999Z,8.18
2018-02-16T06:33:05.677Z,10.32
2018-02-16T06:35:32.608Z,7.87
2018-02-16T06:38:00.281Z,8.55
2018-02-16T06:40:27.205Z,9.63
2018-02-16T06:42:54.884Z,8.35
2018-02-16T06:45:21.813Z,8.45
2018-02-16T06:47:49.494Z,11.23
2018-02-16T06:50:16.416Z,10.13
2018-02-16T06:52:44.096Z,8.55
2018-02-16T06:55:11.024Z,8.55
2018-02-16T06:57:38.700Z,8.00
2018-02-16T07:00:05.634Z,10.77
2018-02-16T07:02:33.313Z,8.70
2018-02-16T07:05:00.242Z,8.05
2018-02-16T07:07:27.962Z,8.65
2018-02-16T07:09:54.863Z,9.05
2018-02-16T07:12:21.775Z,7.20
2018-02-16T07:14:48.702Z,8.10
2018-02-16T07:17:15.611Z,8.70
2018-02-16T07:19:42.561Z,7.20
2018-02-16T07:22:09.487Z,10.93
2018-02-16T07:24:36.395Z,8.73
2018-02-16T07:27:03.319Z,8.07
2018-02-16T07:29:30.231Z,7.85
2018-02-16T07:31:57.192Z,7.25
2018-02-16T07:34:24.096Z,8.40
2018-02-16T07:36:51.793Z,8.38
2018-02-16T07:39:18.705Z,8.98
2018-02-16T07:41:45.627Z,6.93
2018-02-16T07:44:12.532Z,8.23
2018-02-16T07:46:40.223Z,8.30
2018-02-16T07:49:07.132Z,8.38
2018-02-16T07:51:34.052Z,6.72
2018-02-16T07:54:00.956Z,7.47
2018-02-16T07:56:27.893Z,7.85
2018-02-16T07:58:54.804Z,8.70
2018-02-16T08:01:21.741Z,9.50
2018-02-16T08:03:48.672Z,6.65
2018-02-16T08:06:15.597Z,8.73
2018-02-16T08:08:43.276Z,7.00
2018-02-16T08:11:10.207Z,6.30
2018-02-16T08:13:37.880Z,7.22
2018-02-16T08:16:04.804Z,8.88
2018-02-16T08:18:32.481Z,7.18
2018-02-16T08:21:00.164Z,6.18
2018-02-16T08:23:27.072Z,7.00
2018-02-16T08:25:54.759Z,11.15
2018-02-16T08:28:21.668Z,7.35
2018-02-16T08:30:48.606Z,8.85
2018-02-16T08:33:15.523Z,7.93
2018-02-16T08:35:42.445Z,8.57
2018-02-16T08:38:09.356Z,7.07
2018-02-16T08:40:37.054Z,5.82
2018-02-16T08:43:03.968Z,7.37
2018-02-16T08:45:31.711Z,7.93
2018-02-16T08:47:58.626Z,8.05
2018-02-16T08:50:25.540Z,6.70
2018-02-16T08:52:52.444Z,6.43
2018-02-16T08:55:19.396Z,7.60
2018-02-16T08:57:47.080Z,8.48
2018-02-16T09:00:14.779Z,5.40
2018-02-16T09:02:41.693Z,5.57
2018-02-16T09:05:08.613Z,5.60
2018-02-16T09:07:36.425Z,5.60
2018-02-16T09:10:03.365Z,6.70
2018-02-16T09:12:30.282Z,6.10
2018-02-16T09:14:57.209Z,6.10
2018-02-16T09:17:24.884Z,3.58
2018-02-16T09:19:52.594Z,6.05
2018-02-16T09:22:19.528Z,5.60
2018-02-16T09:24:46.454Z,6.20
2018-02-16T09:27:13.376Z,5.30
2018-02-16T09:29:41.078Z,5.90
2018-02-16T09:32:07.992Z,5.72
2018-02-16T09:34:35.675Z,7.47
2018-02-16T09:37:04.746Z,5.87
2018-02-16T09:39:31.981Z,5.10
2018-02-16T09:41:59.680Z,5.85
2018-02-16T09:44:26.583Z,6.62
2018-02-16T09:46:53.510Z,5.93
2018-02-16T09:49:20.467Z,7.47
2018-02-16T09:51:47.400Z,5.82
2018-02-16T09:54:14.318Z,5.12
2018-02-16T09:56:41.261Z,5.20
2018-02-16T09:59:08.172Z,5.43
2018-02-16T10:01:35.870Z,4.60
2018-02-16T10:04:02.776Z,5.68
2018-02-16T10:06:30.475Z,6.25
2018-02-16T10:08:57.403Z,5.25
2018-02-16T10:11:24.336Z,5.70
2018-02-16T10:13:51.237Z,6.37
2018-02-16T10:16:18.164Z,5.72
2018-02-16T10:18:45.849Z,4.43
2018-02-16T10:21:12.778Z,5.68
2018-02-16T10:23:39.701Z,6.45
2018-02-16T10:26:06.619Z,4.30
2018-02-16T10:28:33.530Z,5.90
2018-02-16T10:31:00.452Z,6.10
2018-02-16T10:33:27.352Z,5.60
2018-02-16T10:35:54.296Z,6.47
2018-02-16T10:38:21.200Z,6.10
2018-02-16T10:40:48.129Z,7.47
2018-02-16T10:43:15.796Z,6.55
2018-02-16T10:45:42.727Z,7.00
2018-02-16T10:48:09.640Z,6.80
2018-02-16T10:50:36.583Z,6.12
2018-02-16T10:53:03.488Z,6.28
2018-02-16T10:55:30.440Z,5.57
2018-02-16T10:57:57.348Z,4.68
2018-02-16T11:00:24.292Z,4.80
2018-02-16T11:02:51.215Z,4.07
2018-02-16T11:05:18.136Z,5.22
2018-02-16T11:07:45.821Z,5.00
2018-02-16T11:10:12.746Z,5.05
2018-02-16T11:12:39.658Z,6.35
2018-02-16T11:15:06.573Z,5.43
2018-02-16T11:17:33.476Z,7.50
2018-02-16T11:20:00.403Z,4.05
2018-02-16T11:22:28.097Z,4.97
2018-02-16T11:24:55.024Z,4.35
2018-02-16T11:27:22.705Z,4.05
2018-02-16T11:29:49.627Z,6.35
2018-02-16T11:32:17.318Z,4.78
2018-02-16T11:34:44.284Z,7.32
2018-02-16T11:37:11.220Z,6.12
2018-02-16T11:39:38.148Z,5.87
2018-02-16T11:42:05.877Z,4.32
2018-02-16T11:44:33.568Z,4.82
2018-02-16T11:47:00.483Z,4.78
2018-02-16T11:49:28.213Z,4.57
2018-02-16T11:51:55.118Z,4.97
2018-02-16T11:54:22.042Z,5.85
2018-02-16T11:56:49.719Z,5.43
2018-02-16T11:59:16.653Z,5.40
2018-02-16T12:01:44.343Z,4.55
2018-02-16T12:04:11.277Z,5.87
2018-02-16T12:06:38.224Z,4.50
2018-02-16T12:09:05.151Z,3.97
2018-02-16T12:11:32.841Z,4.80
2018-02-16T12:13:59.864Z,7.55
2018-02-16T12:16:26.813Z,5.35
2018-02-16T12:18:53.728Z,5.78
2018-02-16T12:21:20.659Z,5.68
2018-02-16T12:23:47.587Z,5.30
2018-02-16T12:26:14.514Z,3.97
2018-02-16T12:28:41.423Z,3.30
2018-02-16T12:31:08.347Z,4.93
2018-02-16T12:33:35.255Z,4.35
2018-02-16T12:36:02.182Z,6.62
2018-02-16T12:38:29.100Z,4.93
2018-02-16T12:40:56.787Z,4.95
2018-02-16T12:43:23.691Z,1.67
2018-02-16T12:45:51.379Z,5.90
2018-02-16T12:48:18.300Z,4.12
2018-02-16T12:50:45.989Z,5.15
2018-02-16T12:53:12.906Z,5.50
2018-02-16T12:55:40.612Z,5.22
2018-02-16T12:58:07.549Z,4.87
2018-02-16T13:00:34.473Z,4.93
2018-02-16T13:03:01.381Z,4.20
2018-02-16T13:05:28.314Z,6.10
2018-02-16T13:07:55.220Z,5.00
2018-02-16T13:10:22.169Z,5.35
2018-02-16T13:12:49.076Z,5.32
2018-02-16T13:15:16.769Z,4.80
2018-02-16T13:17:43.681Z,4.75
2018-02-16T13:20:11.368Z,3.37
2018-02-16T13:22:38.274Z,5.57
2018-02-16T13:25:05.207Z,4.15
2018-02-16T13:27:32.113Z,4.53
2018-02-16T13:29:59.036Z,4.57
2018-02-16T13:32:25.940Z,5.55
2018-02-16T13:34:52.876Z,5.87
2018-02-16T13:37:19.793Z,5.20
2018-02-16T13:39:46.732Z,5.40
2018-02-16T13:42:13.671Z,4.35
2018-02-16T13:44:40.600Z,4.57
2018-02-16T13:47:07.527Z,5.62
2018-02-16T13:49:34.440Z,5.25
2018-02-16T13:52:02.120Z,5.95
2018-02-16T13:54:29.057Z,4.93
2018-02-16T13:56:55.968Z,4.85
2018-02-16T13:59:22.888Z,3.25
2018-02-16T14:01:49.808Z,4.85
2018-02-16T14:04:16.727Z,5.72
2018-02-16T14:06:43.644Z,5.30
2018-02-16T14:09:10.588Z,4.72
2018-02-16T14:11:37.528Z,6.25
2018-02-16T14:14:04.464Z,4.87
2018-02-16T14:16:34.193Z,5.07
2018-02-16T14:19:01.125Z,4.93
2018-02-16T14:21:28.053Z,3.97
2018-02-16T14:23:54.988Z,4.40
2018-02-16T14:26:22.669Z,3.95
2018-02-16T14:28:49.592Z,4.82
2018-02-16T14:31:16.513Z,6.00
2018-02-16T14:33:43.440Z,6.47
2018-02-16T14:36:10.359Z,3.62
2018-02-16T14:38:37.289Z,5.25
2018-02-16T14:41:04.199Z,4.05
2018-02-16T14:43:31.165Z,5.20
2018-02-16T16:07:55.441Z,5.07
2018-02-16T16:10:23.241Z,4.90
2018-02-16T16:12:50.940Z,6.10
2018-02-16T16:15:17.877Z,5.03
2018-02-16T16:17:44.857Z,5.45
2018-02-16T16:20:11.835Z,4.57
2018-02-16T16:22:39.774Z,4.82
2018-02-16T16:25:06.800Z,6.60
2018-02-16T16:27:33.722Z,5.20
2018-02-16T16:30:00.705Z,5.82
2018-02-16T16:32:27.728Z,6.53
2018-02-16T16:34:54.676Z,6.03
2018-02-16T16:37:21.625Z,4.90
2018-02-16T16:39:48.683Z,8.20
2018-02-16T16:42:15.616Z,6.57
2018-02-16T16:44:42.665Z,5.07
2018-02-16T16:47:10.237Z,5.90
2018-02-16T16:49:37.272Z,4.50
2018-02-16T16:52:04.191Z,5.18
2018-02-16T16:54:31.104Z,7.03
2018-02-16T16:56:58.812Z,5.22
2018-02-16T16:59:25.736Z,4.80
2018-02-16T17:01:53.407Z,6.03
2018-02-16T17:04:20.333Z,5.35
2018-02-16T17:06:48.008Z,6.50
2018-02-16T17:09:14.944Z,5.90
2018-02-16T17:11:41.861Z,5.68
2018-02-16T17:14:08.916Z,5.65
2018-02-16T17:16:36.607Z,7.00
2018-02-16T17:19:03.556Z,5.87
2018-02-16T17:21:30.919Z,5.28
2018-02-16T17:23:57.891Z,5.47
2018-02-16T17:26:24.805Z,6.30
2018-02-16T17:28:51.745Z,7.90
2018-02-16T17:31:18.729Z,5.60
2018-02-16T17:33:45.636Z,8.50
2018-02-16T18:58:09.144Z,4.62
2018-02-16T19:00:36.064Z,5.57
2018-02-16T19:03:02.968Z,7.30
2018-02-16T19:05:29.883Z,5.70
2018-02-16T19:07:56.837Z,4.97
2018-02-16T19:10:23.786Z,4.95
2018-02-16T19:12:50.717Z,5.95
2018-02-16T19:15:17.710Z,6.15
2018-02-16T19:17:45.428Z,5.30
2018-02-16T19:20:12.357Z,5.45
2018-02-16T19:22:39.287Z,5.50
2018-02-16T19:25:06.197Z,5.40
2018-02-16T19:27:33.122Z,6.55
2018-02-16T19:30:00.054Z,5.43
2018-02-16T19:32:26.991Z,5.93
2018-02-16T19:34:53.912Z,7.35
2018-02-16T19:37:20.923Z,6.90
2018-02-16T19:39:47.852Z,7.70
2018-02-16T19:42:14.838Z,6.10
2018-02-16T19:44:41.752Z,6.70
2018-02-16T19:47:08.675Z,7.12
2018-02-16T19:49:36.601Z,6.50
2018-02-16T19:52:03.537Z,8.43
2018-02-16T19:54:30.452Z,5.37
2018-02-16T19:56:57.391Z,6.95
2018-02-16T19:59:24.295Z,7.80
2018-02-16T20:01:51.228Z,6.35
2018-02-16T20:04:18.137Z,7.03
2018-02-16T20:06:45.060Z,5.32
2018-02-16T20:09:11.983Z,7.97
2018-02-16T20:11:38.914Z,6.80
2018-02-16T20:14:05.840Z,7.87
2018-02-16T20:16:32.741Z,6.18
2018-02-16T20:18:59.634Z,7.30
2018-02-16T20:21:26.542Z,6.35
2018-02-16T20:23:53.476Z,6.25
2018-02-16T20:26:21.393Z,6.10
2018-02-16T20:28:48.317Z,6.60
2018-02-16T20:31:15.291Z,6.07
2018-02-16T20:33:42.216Z,7.68
2018-02-16T20:36:09.155Z,8.18
2018-02-16T20:38:36.073Z,6.37
2018-02-16T20:41:03.014Z,7.07
2018-02-16T20:43:29.959Z,6.68
2018-02-16T20:45:56.913Z,6.25
2018-02-16T20:48:23.832Z,6.62
2018-02-16T20:50:50.773Z,4.80
2018-02-16T20:53:17.693Z,7.25
2018-02-16T20:55:44.612Z,6.47
2018-02-16T20:58:11.529Z,7.12
2018-02-16T21:00:38.460Z,7.18
2018-02-16T21:03:05.400Z,6.57
2018-02-16T21:05:32.328Z,8.30
2018-02-16T21:08:00.020Z,7.37
2018-02-16T21:10:26.971Z,9.75
2018-02-16T21:12:53.965Z,6.97
2018-02-16T21:15:21.661Z,6.95
2018-02-16T21:17:48.572Z,7.78
2018-02-16T21:20:16.271Z,7.60
2018-02-16T21:22:43.180Z,7.45
2018-02-16T21:25:11.898Z,6.45
2018-02-16T21:27:38.820Z,6.78
2018-02-16T21:30:05.768Z,8.27
2018-02-16T21:32:35.348Z,8.63
2018-02-16T21:35:02.278Z,7.20
2018-02-16T21:37:29.199Z,6.05
2018-02-16T21:39:56.165Z,7.30
2018-02-16T21:42:23.093Z,7.18
2018-02-16T21:44:50.038Z,5.93
2018-02-16T21:47:16.969Z,7.37
2018-02-16T21:49:43.906Z,7.70
2018-02-16T21:52:10.825Z,7.45
2018-02-16T21:54:37.779Z,7.65
2018-02-16T21:57:05.630Z,9.25
2018-02-16T21:59:32.641Z,6.12
2018-02-16T22:01:59.544Z,6.15
2018-02-16T22:04:26.477Z,10.65
2018-02-16T22:06:53.375Z,7.28
2018-02-16T22:09:20.300Z,6.37
2018-02-16T22:11:47.234Z,8.35
2018-02-16T22:14:14.169Z,6.70
2018-02-16T22:16:41.084Z,6.80
2018-02-16T22:19:08.790Z,6.50
2018-02-16T22:21:35.703Z,8.10
2018-02-16T22:24:02.625Z,6.80
2018-02-16T22:26:30.293Z,6.78
2018-02-16T22:28:58.169Z,9.68
2018-02-16T22:31:25.103Z,7.65
2018-02-16T22:33:52.780Z,7.60
2018-02-16T22:36:19.712Z,7.40
2018-02-16T22:38:47.384Z,5.35
2018-02-16T22:41:14.299Z,8.13
2018-02-16T22:43:41.240Z,6.95
2018-02-16T22:46:08.164Z,5.82
2018-02-16T22:48:35.076Z,7.35
2018-02-16T22:51:01.995Z,5.97
2018-02-16T22:53:28.904Z,5.90
2018-02-16T22:55:55.832Z,6.28
2018-02-16T22:58:22.748Z,6.70
2018-02-16T23:00:49.680Z,7.93
2018-02-16T23:03:16.661Z,8.15
2018-02-16T23:05:43.596Z,7.53
2018-02-16T23:08:11.524Z,7.82
2018-02-16T23:10:39.216Z,7.35
2018-02-16T23:13:06.182Z,6.45
2018-02-16T23:15:33.230Z,8.60
2018-02-16T23:18:00.146Z,7.07
2018-02-16T23:20:27.068Z,7.70
2018-02-16T23:22:53.999Z,6.80
2018-02-16T23:25:21.700Z,9.45
2018-02-16T23:27:49.541Z,6.85
2018-02-16T23:30:17.228Z,5.30
2018-02-16T23:32:44.136Z,7.62
2018-02-16T23:35:12.889Z,8.40
2018-02-16T23:37:39.808Z,6.57
2018-02-16T23:40:06.760Z,7.30
2018-02-16T23:42:33.623Z,5.97
2018-02-16T23:45:00.557Z,6.45
2018-02-16T23:47:28.309Z,5.65
2018-02-16T23:49:55.252Z,6.10
2018-02-16T23:52:22.941Z,6.60
2018-02-16T23:54:50.808Z,6.15
2018-02-16T23:57:18.493Z,5.82
2018-02-16T23:59:45.442Z,5.50
